createdAt,value
2023-04-11T00:00:50.304Z,48.9
2023-04-11T00:06:43.610Z,48.9
2023-04-11T00:12:35.633Z,48.9
2023-04-11T00:18:28.050Z,48.9
2023-04-11T00:24:20.189Z,48.8
2023-04-11T00:30:11.972Z,48.8
2023-04-11T00:36:03.524Z,48.8
2023-04-11T00:41:55.140Z,48.7
2023-04-11T00:47:46.634Z,48.7
2023-04-11T00:53:38.494Z,48.6
2023-04-11T00:59:29.536Z,48.6
2023-04-11T01:05:24.240Z,48.6
2023-04-11T01:11:16.096Z,49.6
2023-04-11T01:17:08.336Z,51.1
2023-04-11T01:22:29.996Z,52.6
2023-04-11T01:28:20.693Z,54.3
2023-04-11T01:34:13.180Z,56
2023-04-11T01:39:49.556Z,57.7
2023-04-11T01:45:25.987Z,58.3
2023-04-11T01:57:08.610Z,58.3
2023-04-11T02:02:45.162Z,58.3
2023-04-11T02:08:38.123Z,59.4
2023-04-11T02:14:30.033Z,60.4
2023-04-11T02:20:22.169Z,60.4
2023-04-11T02:26:14.324Z,60.4
2023-04-11T02:32:06.352Z,60.3
2023-04-11T02:37:57.580Z,60.3
2023-04-11T02:43:48.423Z,60.3
2023-04-11T02:49:52.885Z,60.2
2023-04-11T02:55:44.230Z,60.1
2023-04-11T03:01:35.744Z,60.1
2023-04-11T03:07:13.523Z,60.1
2023-04-11T03:13:05.248Z,60
2023-04-11T03:18:57.411Z,59.9
2023-04-11T03:24:48.611Z,59.9
2023-04-11T03:30:40.202Z,59.9
2023-04-11T03:36:32.415Z,59.8
2023-04-11T03:42:08.577Z,59.8
2023-04-11T03:48:00.702Z,59.8
2023-04-11T03:53:55.048Z,59.7
2023-04-11T03:59:49.634Z,59.6
2023-04-11T04:05:28.591Z,59.6
2023-04-11T04:11:20.964Z,59.5
2023-04-11T04:17:12.684Z,59.4
2023-04-11T04:23:04.361Z,59.4
2023-04-11T04:28:57.079Z,59.4
2023-04-11T04:34:53.013Z,59.3
2023-04-11T04:40:45.039Z,59.3
2023-04-11T04:46:37.030Z,59.2
2023-04-11T04:52:14.325Z,59.2
2023-04-11T04:57:51.000Z,59.1
2023-04-11T05:03:44.010Z,59.1
2023-04-11T05:09:37.371Z,59
2023-04-11T05:15:31.222Z,59
2023-04-11T05:21:23.385Z,58.9
2023-04-11T05:27:15.268Z,58.9
2023-04-11T05:33:06.530Z,58.8
2023-04-11T05:38:58.443Z,58.8
2023-04-11T05:44:49.818Z,58.8
2023-04-11T05:50:40.986Z,58.7
2023-04-11T05:56:33.224Z,58.6
2023-04-11T06:08:10.181Z,58.5
2023-04-11T06:14:04.190Z,58.4
2023-04-11T06:19:58.719Z,58.4
2023-04-11T06:25:49.323Z,58.4
2023-04-11T06:31:41.386Z,58.3
2023-04-11T06:37:33.581Z,58.3
2023-04-11T06:43:25.913Z,58.2
2023-04-11T06:49:02.523Z,58.2
2023-04-11T06:54:39.066Z,58.1
2023-04-11T07:00:31.194Z,58.1
2023-04-11T07:06:28.473Z,58
2023-04-11T07:12:20.589Z,57.9
2023-04-11T07:18:13.042Z,57.9
2023-04-11T07:24:04.701Z,57.9
2023-04-11T07:30:00.014Z,57.8
2023-04-11T07:41:27.988Z,57.7
2023-04-11T07:47:19.863Z,57.6
2023-04-11T07:53:11.385Z,57.6
2023-04-11T07:59:02.222Z,57.5
2023-04-11T08:04:58.391Z,57.5
2023-04-11T08:10:51.488Z,57.4
2023-04-11T08:16:44.230Z,57.4
2023-04-11T08:22:46.843Z,57.3
2023-04-11T08:28:42.584Z,57.3
2023-04-11T08:34:23.132Z,57.2
2023-04-11T08:40:15.690Z,57.2
2023-04-11T08:46:06.880Z,57.1
2023-04-11T08:51:58.706Z,57.1
2023-04-11T08:57:50.209Z,57
2023-04-11T09:03:44.269Z,56.9
2023-04-11T09:09:35.665Z,56.9
2023-04-11T09:15:28.628Z,56.9
2023-04-11T09:21:28.106Z,56.8
2023-04-11T09:27:22.739Z,56.8
2023-04-11T09:33:14.812Z,56.8
2023-04-11T09:39:06.218Z,56.7
2023-04-11T09:45:00.494Z,56.6
2023-04-11T09:51:27.966Z,56.6
2023-04-11T09:57:29.263Z,56.5
2023-04-11T10:03:22.390Z,56.4
2023-04-11T10:09:15.167Z,56.4
2023-04-11T10:15:06.456Z,56.4
2023-04-11T10:21:03.032Z,56.3
2023-04-11T10:26:39.710Z,56.3
2023-04-11T10:32:31.364Z,56.2
2023-04-11T10:38:07.949Z,56.2
2023-04-11T10:43:44.864Z,56.1
2023-04-11T10:49:36.668Z,56.1
2023-04-11T10:55:28.817Z,56.1
2023-04-11T11:01:31.645Z,56
2023-04-11T11:07:52.159Z,55.9
2023-04-11T11:13:30.339Z,55.9
2023-04-11T11:19:22.890Z,55.9
2023-04-11T11:25:08.234Z,55.8
2023-04-11T11:30:59.955Z,55.8
2023-04-11T11:36:55.983Z,55.8
2023-04-11T11:42:47.394Z,55.8
2023-04-11T11:48:10.720Z,55.7
2023-04-11T11:54:02.863Z,55.8
2023-04-11T11:59:41.438Z,55.8
2023-04-11T12:05:35.995Z,55.8
2023-04-11T12:11:28.560Z,55.8
2023-04-11T12:16:51.224Z,55.8
2023-04-11T12:22:43.590Z,55.7
2023-04-11T12:28:42.195Z,55.7
2023-04-11T12:34:36.112Z,55.6
2023-04-11T12:40:31.113Z,55.6
2023-04-11T12:46:53.371Z,55.6
2023-04-11T12:52:30.324Z,55.6
2023-04-11T12:58:21.573Z,55.6
2023-04-11T13:04:23.556Z,55.6
2023-04-11T13:10:16.290Z,55.6
2023-04-11T13:16:23.239Z,55.6
2023-04-11T13:22:15.808Z,55.5
2023-04-11T13:28:08.301Z,55.5
2023-04-11T13:34:01.130Z,55.4
2023-04-11T13:39:54.906Z,55.4
2023-04-11T13:45:46.590Z,55.4
2023-04-11T13:51:23.319Z,55.4
2023-04-11T13:57:15.429Z,55.3
2023-04-11T14:03:24.260Z,55.3
2023-04-11T14:09:16.869Z,55.3
2023-04-11T14:15:08.664Z,55.2
2023-04-11T14:21:12.357Z,55.2
2023-04-11T14:27:05.375Z,55.1
2023-04-11T14:32:58.959Z,55.1
2023-04-11T14:38:50.726Z,55.1
2023-04-11T14:44:44.554Z,55
2023-04-11T14:50:37.125Z,54.9
2023-04-11T14:56:28.872Z,54.9
2023-04-11T15:02:20.950Z,54.9
2023-04-11T15:08:14.839Z,54.8
2023-04-11T15:14:06.631Z,54.7
2023-04-11T15:20:01.290Z,54.6
2023-04-11T15:25:52.994Z,54.6
2023-04-11T15:31:45.162Z,54.6
2023-04-11T15:37:39.911Z,54.5
2023-04-11T15:43:16.233Z,54.4
2023-04-11T15:49:08.651Z,54.4
2023-04-11T15:55:01.068Z,54.4
2023-04-11T16:00:52.722Z,54.4
2023-04-11T16:06:35.672Z,54.3
2023-04-11T16:12:27.499Z,54.3
2023-04-11T16:18:04.266Z,54.2
2023-04-11T16:23:56.752Z,54.1
2023-04-11T16:29:48.854Z,54.1
2023-04-11T16:35:43.378Z,54.1
2023-04-11T16:41:37.459Z,54
2023-04-11T16:46:45.568Z,54
2023-04-11T16:52:06.907Z,53.9
2023-04-11T16:57:58.614Z,53.9
2023-04-11T17:03:52.558Z,53.9
2023-04-11T17:09:45.002Z,53.8
2023-04-11T17:15:06.088Z,53.8
2023-04-11T17:20:42.868Z,53.7
2023-04-11T17:26:34.954Z,53.7
2023-04-11T17:32:27.109Z,53.6
2023-04-11T17:38:18.902Z,53.6
2023-04-11T17:44:21.221Z,53.5
2023-04-11T17:50:06.090Z,53.5
2023-04-11T17:55:54.445Z,53.4
2023-04-11T18:02:01.476Z,53.4
2023-04-11T18:07:42.154Z,53.3
2023-04-11T18:13:21.157Z,53.3
2023-04-11T18:18:58.013Z,53.3
2023-04-11T18:24:19.007Z,53.3
2023-04-11T18:30:10.871Z,53.2
2023-04-11T18:36:18.108Z,53.1
2023-04-11T18:42:13.811Z,53.1
2023-04-11T18:48:00.681Z,53.1
2023-04-11T18:53:46.751Z,53
2023-04-11T18:59:49.235Z,52.9
2023-04-11T19:05:37.851Z,52.9
2023-04-11T19:11:15.678Z,52.9
2023-04-11T19:16:53.925Z,52.9
2023-04-11T19:22:32.738Z,52.8
2023-04-11T19:28:10.135Z,52.7
2023-04-11T19:33:48.676Z,53.6
2023-04-11T19:39:26.407Z,55
2023-04-11T19:44:48.899Z,56.6
2023-04-11T19:50:27.022Z,58.1
2023-04-11T19:56:07.187Z,59.8
2023-04-11T20:01:45.202Z,60.8
2023-04-11T20:07:11.393Z,60.8
2023-04-11T20:12:50.107Z,60.8
2023-04-11T20:18:27.696Z,60.8
2023-04-11T20:23:48.788Z,60.8
2023-04-11T20:29:25.895Z,60.7
2023-04-11T20:35:03.365Z,60.6
2023-04-11T20:40:42.223Z,60.6
2023-04-11T20:46:19.210Z,60.6
2023-04-11T20:51:56.412Z,60.5
2023-04-11T20:57:32.425Z,60.4
2023-04-11T21:03:09.962Z,60.4
2023-04-11T21:09:02.454Z,60.4
2023-04-11T21:14:53.633Z,60.3
2023-04-11T21:20:45.107Z,60.1
2023-04-11T21:26:36.491Z,60
2023-04-11T21:32:13.498Z,59.9
2023-04-11T21:38:05.826Z,59.9
2023-04-11T21:43:57.371Z,59.8
2023-04-11T21:49:49.648Z,59.8
2023-04-11T21:55:42.171Z,59.7
2023-04-11T22:01:46.028Z,59.6
2023-04-11T22:07:51.700Z,59.6
2023-04-11T22:13:54.001Z,59.5
2023-04-11T22:19:46.689Z,59.4
2023-04-11T22:25:38.383Z,59.4
2023-04-11T22:31:30.291Z,59.3
2023-04-11T22:37:07.185Z,59.3
2023-04-11T22:42:58.488Z,59.3
2023-04-11T22:48:50.751Z,59.2
2023-04-11T22:54:42.423Z,59.1
2023-04-11T23:00:33.056Z,59.1
2023-04-11T23:06:25.258Z,59
2023-04-11T23:12:02.128Z,59
2023-04-11T23:17:53.825Z,58.9
2023-04-11T23:23:29.797Z,58.9
2023-04-11T23:29:21.364Z,58.8
2023-04-11T23:35:12.933Z,58.8
2023-04-11T23:40:33.590Z,58.7
2023-04-11T23:45:39.530Z,58.6
2023-04-11T23:51:00.043Z,58.6
